sensor_id;sensor_type;location;lat;lon;timestamp;P1;durP1;ratioP1;P2;durP2;ratioP2
62580;SDS011;48640;48.770;9.148;2023-04-01T00:01:16;6.85;;;0.95;;
62580;SDS011;48640;48.770;9.148;2023-04-01T00:03:43;5.05;;;0.70;;
62580;SDS011;48640;48.770;9.148;2023-04-01T00:06:10;2.70;;;0.80;;
62580;SDS011;48640;48.770;9.148;2023-04-01T00:08:39;3.00;;;0.70;;
62580;SDS011;48640;48.770;9.148;2023-04-01T00:11:05;2.63;;;1.35;;
62580;SDS011;48640;48.770;9.148;2023-04-01T00:13:34;1.83;;;0.52;;
62580;SDS011;48640;48.770;9.148;2023-04-01T00:16:00;1.48;;;0.60;;
62580;SDS011;48640;48.770;9.148;2023-04-01T00:18:28;4.15;;;0.90;;
62580;SDS011;48640;48.770;9.148;2023-04-01T00:20:54;2.70;;;1.00;;
62580;SDS011;48640;48.770;9.148;2023-04-01T00:23:21;1.98;;;0.70;;
62580;SDS011;48640;48.770;9.148;2023-04-01T00:25:48;2.95;;;0.85;;
62580;SDS011;48640;48.770;9.148;2023-04-01T00:28:16;1.75;;;1.00;;
62580;SDS011;48640;48.770;9.148;2023-04-01T00:30:44;1.52;;;0.57;;
62580;SDS011;48640;48.770;9.148;2023-04-01T00:33:12;4.10;;;0.70;;
62580;SDS011;48640;48.770;9.148;2023-04-01T00:35:40;2.70;;;0.85;;
62580;SDS011;48640;48.770;9.148;2023-04-01T00:38:06;5.53;;;1.00;;
62580;SDS011;48640;48.770;9.148;2023-04-01T00:40:35;3.47;;;0.73;;
62580;SDS011;48640;48.770;9.148;2023-04-01T00:43:08;2.72;;;0.90;;
62580;SDS011;48640;48.770;9.148;2023-04-01T00:45:39;2.40;;;0.80;;
62580;SDS011;48640;48.770;9.148;2023-04-01T00:48:08;2.60;;;0.80;;
62580;SDS011;48640;48.770;9.148;2023-04-01T00:50:38;2.83;;;0.60;;
62580;SDS011;48640;48.770;9.148;2023-04-01T00:53:07;2.78;;;1.05;;
62580;SDS011;48640;48.770;9.148;2023-04-01T00:55:36;3.50;;;1.10;;
62580;SDS011;48640;48.770;9.148;2023-04-01T00:58:07;3.75;;;0.80;;
62580;SDS011;48640;48.770;9.148;2023-04-01T01:00:39;2.78;;;0.70;;
62580;SDS011;48640;48.770;9.148;2023-04-01T01:03:08;2.95;;;0.75;;
62580;SDS011;48640;48.770;9.148;2023-04-01T01:05:38;3.53;;;1.15;;
62580;SDS011;48640;48.770;9.148;2023-04-01T01:08:15;3.83;;;1.08;;
62580;SDS011;48640;48.770;9.148;2023-04-01T01:10:49;1.95;;;0.70;;
62580;SDS011;48640;48.770;9.148;2023-04-01T01:13:16;2.45;;;0.68;;
62580;SDS011;48640;48.770;9.148;2023-04-01T01:15:49;3.42;;;1.00;;
62580;SDS011;48640;48.770;9.148;2023-04-01T01:18:25;6.85;;;1.02;;
62580;SDS011;48640;48.770;9.148;2023-04-01T01:23:57;4.55;;;1.00;;
62580;SDS011;48640;48.770;9.148;2023-04-01T01:26:39;4.65;;;1.55;;
62580;SDS011;48640;48.770;9.148;2023-04-01T01:29:16;6.15;;;1.17;;
62580;SDS011;48640;48.770;9.148;2023-04-01T01:32:09;7.43;;;1.33;;
62580;SDS011;48640;48.770;9.148;2023-04-01T01:34:46;2.38;;;0.80;;
62580;SDS011;48640;48.770;9.148;2023-04-01T01:37:20;6.47;;;1.95;;
62580;SDS011;48640;48.770;9.148;2023-04-01T01:39:50;4.00;;;0.90;;
62580;SDS011;48640;48.770;9.148;2023-04-01T01:42:20;2.17;;;0.75;;
62580;SDS011;48640;48.770;9.148;2023-04-01T01:44:50;5.78;;;1.00;;
62580;SDS011;48640;48.770;9.148;2023-04-01T01:47:18;4.90;;;1.67;;
62580;SDS011;48640;48.770;9.148;2023-04-01T01:49:48;2.50;;;0.73;;
62580;SDS011;48640;48.770;9.148;2023-04-01T01:52:17;2.47;;;0.90;;
62580;SDS011;48640;48.770;9.148;2023-04-01T01:54:48;2.60;;;0.60;;
62580;SDS011;48640;48.770;9.148;2023-04-01T01:57:16;2.33;;;0.57;;
62580;SDS011;48640;48.770;9.148;2023-04-01T01:59:45;2.15;;;0.60;;
62580;SDS011;48640;48.770;9.148;2023-04-01T02:02:13;1.77;;;0.57;;
62580;SDS011;48640;48.770;9.148;2023-04-01T02:04:42;2.58;;;0.77;;
62580;SDS011;48640;48.770;9.148;2023-04-01T02:07:11;5.20;;;0.90;;
62580;SDS011;48640;48.770;9.148;2023-04-01T02:09:42;2.22;;;0.77;;
62580;SDS011;48640;48.770;9.148;2023-04-01T02:12:10;2.33;;;0.60;;
62580;SDS011;48640;48.770;9.148;2023-04-01T02:14:42;2.15;;;0.50;;
62580;SDS011;48640;48.770;9.148;2023-04-01T02:17:12;3.67;;;0.70;;
62580;SDS011;48640;48.770;9.148;2023-04-01T02:22:11;1.83;;;0.55;;
62580;SDS011;48640;48.770;9.148;2023-04-01T02:24:42;1.17;;;0.50;;
62580;SDS011;48640;48.770;9.148;2023-04-01T02:27:11;1.52;;;0.50;;
62580;SDS011;48640;48.770;9.148;2023-04-01T02:29:39;2.35;;;0.70;;
62580;SDS011;48640;48.770;9.148;2023-04-01T02:32:05;1.75;;;0.40;;
62580;SDS011;48640;48.770;9.148;2023-04-01T02:34:34;3.50;;;0.60;;
62580;SDS011;48640;48.770;9.148;2023-04-01T02:37:02;1.02;;;0.40;;
62580;SDS011;48640;48.770;9.148;2023-04-01T02:39:29;0.43;;;0.30;;
62580;SDS011;48640;48.770;9.148;2023-04-01T02:41:56;1.67;;;0.40;;
62580;SDS011;48640;48.770;9.148;2023-04-01T02:44:24;1.35;;;0.38;;
62580;SDS011;48640;48.770;9.148;2023-04-01T02:46:51;1.75;;;0.50;;
62580;SDS011;48640;48.770;9.148;2023-04-01T02:49:18;1.95;;;0.60;;
62580;SDS011;48640;48.770;9.148;2023-04-01T02:51:45;1.67;;;0.35;;
62580;SDS011;48640;48.770;9.148;2023-04-01T02:54:12;1.48;;;0.52;;
62580;SDS011;48640;48.770;9.148;2023-04-01T02:56:39;2.20;;;0.40;;
62580;SDS011;48640;48.770;9.148;2023-04-01T02:59:06;1.48;;;0.45;;
62580;SDS011;48640;48.770;9.148;2023-04-01T03:01:34;1.27;;;0.75;;
62580;SDS011;48640;48.770;9.148;2023-04-01T03:04:01;0.98;;;0.28;;
62580;SDS011;48640;48.770;9.148;2023-04-01T03:06:28;2.20;;;0.30;;
62580;SDS011;48640;48.770;9.148;2023-04-01T03:08:54;1.50;;;0.55;;
62580;SDS011;48640;48.770;9.148;2023-04-01T03:11:21;1.88;;;0.50;;
62580;SDS011;48640;48.770;9.148;2023-04-01T03:13:48;0.90;;;0.38;;
62580;SDS011;48640;48.770;9.148;2023-04-01T03:16:15;1.20;;;0.30;;
62580;SDS011;48640;48.770;9.148;2023-04-01T03:18:43;1.42;;;0.38;;
62580;SDS011;48640;48.770;9.148;2023-04-01T03:21:14;0.85;;;0.35;;
62580;SDS011;48640;48.770;9.148;2023-04-01T03:23:42;1.05;;;0.30;;
62580;SDS011;48640;48.770;9.148;2023-04-01T03:26:09;0.93;;;0.28;;
62580;SDS011;48640;48.770;9.148;2023-04-01T03:28:36;0.82;;;0.30;;
62580;SDS011;48640;48.770;9.148;2023-04-01T03:31:03;0.98;;;0.32;;
62580;SDS011;48640;48.770;9.148;2023-04-01T03:33:30;1.75;;;0.50;;
62580;SDS011;48640;48.770;9.148;2023-04-01T03:35:58;2.20;;;0.70;;
62580;SDS011;48640;48.770;9.148;2023-04-01T03:38:25;1.85;;;0.30;;
62580;SDS011;48640;48.770;9.148;2023-04-01T03:40:52;1.40;;;0.40;;
62580;SDS011;48640;48.770;9.148;2023-04-01T03:43:19;0.45;;;0.20;;
62580;SDS011;48640;48.770;9.148;2023-04-01T03:45:46;0.60;;;0.30;;
62580;SDS011;48640;48.770;9.148;2023-04-01T03:48:16;1.42;;;0.40;;
62580;SDS011;48640;48.770;9.148;2023-04-01T03:50:44;1.95;;;0.30;;
62580;SDS011;48640;48.770;9.148;2023-04-01T03:53:12;3.42;;;0.50;;
62580;SDS011;48640;48.770;9.148;2023-04-01T03:55:40;1.00;;;0.32;;
62580;SDS011;48640;48.770;9.148;2023-04-01T03:58:07;1.02;;;0.30;;
62580;SDS011;48640;48.770;9.148;2023-04-01T04:00:34;2.10;;;0.40;;
62580;SDS011;48640;48.770;9.148;2023-04-01T04:03:01;2.05;;;0.50;;
62580;SDS011;48640;48.770;9.148;2023-04-01T04:05:28;2.03;;;0.40;;
62580;SDS011;48640;48.770;9.148;2023-04-01T04:07:56;0.77;;;0.32;;
62580;SDS011;48640;48.770;9.148;2023-04-01T04:10:24;1.25;;;0.40;;
62580;SDS011;48640;48.770;9.148;2023-04-01T04:12:51;0.85;;;0.30;;
62580;SDS011;48640;48.770;9.148;2023-04-01T04:15:18;2.33;;;0.50;;
62580;SDS011;48640;48.770;9.148;2023-04-01T04:17:45;3.42;;;0.32;;
62580;SDS011;48640;48.770;9.148;2023-04-01T04:20:12;1.80;;;0.35;;
62580;SDS011;48640;48.770;9.148;2023-04-01T04:22:39;0.80;;;0.30;;
62580;SDS011;48640;48.770;9.148;2023-04-01T04:25:06;1.35;;;0.70;;
62580;SDS011;48640;48.770;9.148;2023-04-01T04:27:35;1.58;;;0.40;;
62580;SDS011;48640;48.770;9.148;2023-04-01T04:30:02;1.10;;;0.85;;
62580;SDS011;48640;48.770;9.148;2023-04-01T04:32:31;3.22;;;0.47;;
62580;SDS011;48640;48.770;9.148;2023-04-01T04:34:58;1.95;;;0.50;;
62580;SDS011;48640;48.770;9.148;2023-04-01T04:37:24;1.75;;;0.40;;
62580;SDS011;48640;48.770;9.148;2023-04-01T04:39:51;1.05;;;0.40;;
62580;SDS011;48640;48.770;9.148;2023-04-01T04:42:18;1.23;;;0.40;;
62580;SDS011;48640;48.770;9.148;2023-04-01T04:44:46;1.73;;;0.43;;
62580;SDS011;48640;48.770;9.148;2023-04-01T04:47:13;0.73;;;0.20;;
62580;SDS011;48640;48.770;9.148;2023-04-01T04:49:40;0.80;;;0.35;;
62580;SDS011;48640;48.770;9.148;2023-04-01T04:52:07;2.45;;;0.40;;
62580;SDS011;48640;48.770;9.148;2023-04-01T04:54:33;1.80;;;0.45;;
62580;SDS011;48640;48.770;9.148;2023-04-01T04:57:00;2.10;;;0.50;;
62580;SDS011;48640;48.770;9.148;2023-04-01T04:59:27;1.73;;;0.50;;
62580;SDS011;48640;48.770;9.148;2023-04-01T05:01:55;1.73;;;0.73;;
62580;SDS011;48640;48.770;9.148;2023-04-01T05:04:22;2.13;;;0.73;;
62580;SDS011;48640;48.770;9.148;2023-04-01T05:06:49;1.33;;;0.43;;
62580;SDS011;48640;48.770;9.148;2023-04-01T05:09:16;1.55;;;0.50;;
62580;SDS011;48640;48.770;9.148;2023-04-01T05:11:43;2.15;;;0.57;;
62580;SDS011;48640;48.770;9.148;2023-04-01T05:14:13;4.88;;;0.60;;
62580;SDS011;48640;48.770;9.148;2023-04-01T05:16:40;2.25;;;0.50;;
62580;SDS011;48640;48.770;9.148;2023-04-01T05:19:08;0.88;;;0.50;;
62580;SDS011;48640;48.770;9.148;2023-04-01T05:21:35;1.85;;;0.60;;
62580;SDS011;48640;48.770;9.148;2023-04-01T05:24:02;1.00;;;0.55;;
62580;SDS011;48640;48.770;9.148;2023-04-01T05:26:29;1.90;;;0.52;;
62580;SDS011;48640;48.770;9.148;2023-04-01T05:28:57;1.50;;;0.60;;
62580;SDS011;48640;48.770;9.148;2023-04-01T05:31:24;2.70;;;0.80;;
62580;SDS011;48640;48.770;9.148;2023-04-01T05:33:51;2.50;;;0.60;;
62580;SDS011;48640;48.770;9.148;2023-04-01T05:36:20;1.20;;;0.50;;
62580;SDS011;48640;48.770;9.148;2023-04-01T05:38:47;2.80;;;0.60;;
62580;SDS011;48640;48.770;9.148;2023-04-01T05:41:15;2.65;;;0.70;;
62580;SDS011;48640;48.770;9.148;2023-04-01T05:43:42;4.35;;;0.80;;
62580;SDS011;48640;48.770;9.148;2023-04-01T05:46:09;3.58;;;0.60;;
62580;SDS011;48640;48.770;9.148;2023-04-01T05:48:36;4.38;;;1.33;;
62580;SDS011;48640;48.770;9.148;2023-04-01T05:51:03;3.63;;;0.82;;
62580;SDS011;48640;48.770;9.148;2023-04-01T05:53:31;2.83;;;0.90;;
62580;SDS011;48640;48.770;9.148;2023-04-01T05:56:01;1.85;;;0.57;;
62580;SDS011;48640;48.770;9.148;2023-04-01T05:58:28;1.88;;;0.80;;
62580;SDS011;48640;48.770;9.148;2023-04-01T06:00:59;1.17;;;0.40;;
62580;SDS011;48640;48.770;9.148;2023-04-01T06:03:27;1.90;;;0.82;;
62580;SDS011;48640;48.770;9.148;2023-04-01T06:05:54;2.15;;;0.60;;
62580;SDS011;48640;48.770;9.148;2023-04-01T06:08:21;1.83;;;0.60;;
62580;SDS011;48640;48.770;9.148;2023-04-01T06:11:01;2.65;;;0.70;;
62580;SDS011;48640;48.770;9.148;2023-04-01T06:13:45;3.13;;;0.85;;
62580;SDS011;48640;48.770;9.148;2023-04-01T06:16:32;4.25;;;1.20;;
62580;SDS011;48640;48.770;9.148;2023-04-01T06:19:07;3.80;;;1.15;;
62580;SDS011;48640;48.770;9.148;2023-04-01T06:21:46;1.48;;;0.60;;
62580;SDS011;48640;48.770;9.148;2023-04-01T06:24:36;1.35;;;0.85;;
62580;SDS011;48640;48.770;9.148;2023-04-01T06:27:16;2.60;;;1.10;;
62580;SDS011;48640;48.770;9.148;2023-04-01T06:29:54;2.53;;;0.95;;
62580;SDS011;48640;48.770;9.148;2023-04-01T06:32:37;1.55;;;0.63;;
62580;SDS011;48640;48.770;9.148;2023-04-01T06:35:28;3.13;;;0.57;;
62580;SDS011;48640;48.770;9.148;2023-04-01T06:38:10;1.73;;;0.60;;
62580;SDS011;48640;48.770;9.148;2023-04-01T06:43:40;1.35;;;0.50;;
62580;SDS011;48640;48.770;9.148;2023-04-01T06:46:18;1.13;;;0.43;;
62580;SDS011;48640;48.770;9.148;2023-04-01T06:49:02;2.13;;;0.50;;
62580;SDS011;48640;48.770;9.148;2023-04-01T06:51:39;2.38;;;0.50;;
62580;SDS011;48640;48.770;9.148;2023-04-01T06:54:14;3.30;;;0.93;;
62580;SDS011;48640;48.770;9.148;2023-04-01T06:56:46;1.00;;;0.30;;
62580;SDS011;48640;48.770;9.148;2023-04-01T06:59:20;2.80;;;0.40;;
62580;SDS011;48640;48.770;9.148;2023-04-01T07:01:52;1.90;;;0.43;;
62580;SDS011;48640;48.770;9.148;2023-04-01T07:04:22;2.72;;;0.63;;
62580;SDS011;48640;48.770;9.148;2023-04-01T07:06:52;3.45;;;0.60;;
62580;SDS011;48640;48.770;9.148;2023-04-01T07:09:22;1.63;;;0.47;;
62580;SDS011;48640;48.770;9.148;2023-04-01T07:11:53;2.45;;;0.70;;
62580;SDS011;48640;48.770;9.148;2023-04-01T07:14:28;1.67;;;0.47;;
62580;SDS011;48640;48.770;9.148;2023-04-01T07:16:59;3.55;;;0.70;;
62580;SDS011;48640;48.770;9.148;2023-04-01T07:19:32;2.33;;;0.70;;
62580;SDS011;48640;48.770;9.148;2023-04-01T07:22:03;2.83;;;0.82;;
62580;SDS011;48640;48.770;9.148;2023-04-01T07:24:33;1.85;;;0.50;;
62580;SDS011;48640;48.770;9.148;2023-04-01T07:27:02;2.17;;;0.50;;
62580;SDS011;48640;48.770;9.148;2023-04-01T07:29:32;2.60;;;0.70;;
62580;SDS011;48640;48.770;9.148;2023-04-01T07:32:06;3.67;;;0.80;;
62580;SDS011;48640;48.770;9.148;2023-04-01T07:34:59;2.03;;;0.82;;
62580;SDS011;48640;48.770;9.148;2023-04-01T07:37:37;1.40;;;0.60;;
62580;SDS011;48640;48.770;9.148;2023-04-01T07:40:17;2.47;;;0.63;;
62580;SDS011;48640;48.770;9.148;2023-04-01T07:42:54;3.13;;;0.70;;
62580;SDS011;48640;48.770;9.148;2023-04-01T07:45:34;4.03;;;0.73;;
62580;SDS011;48640;48.770;9.148;2023-04-01T07:48:12;1.45;;;0.57;;
62580;SDS011;48640;48.770;9.148;2023-04-01T07:50:50;2.30;;;0.90;;
62580;SDS011;48640;48.770;9.148;2023-04-01T07:53:28;2.03;;;0.50;;
62580;SDS011;48640;48.770;9.148;2023-04-01T07:56:02;2.72;;;0.40;;
62580;SDS011;48640;48.770;9.148;2023-04-01T07:58:34;2.35;;;0.70;;
62580;SDS011;48640;48.770;9.148;2023-04-01T08:01:11;3.00;;;0.82;;
62580;SDS011;48640;48.770;9.148;2023-04-01T08:03:48;3.15;;;0.77;;
62580;SDS011;48640;48.770;9.148;2023-04-01T08:06:25;33.83;;;2.42;;
62580;SDS011;48640;48.770;9.148;2023-04-01T08:08:59;2.97;;;0.60;;
62580;SDS011;48640;48.770;9.148;2023-04-01T08:11:34;2.53;;;0.73;;
62580;SDS011;48640;48.770;9.148;2023-04-01T08:14:12;1.48;;;0.47;;
62580;SDS011;48640;48.770;9.148;2023-04-01T08:16:50;2.90;;;0.70;;
62580;SDS011;48640;48.770;9.148;2023-04-01T08:19:25;1.27;;;0.50;;
62580;SDS011;48640;48.770;9.148;2023-04-01T08:22:03;2.30;;;0.63;;
62580;SDS011;48640;48.770;9.148;2023-04-01T08:24:36;1.42;;;0.43;;
62580;SDS011;48640;48.770;9.148;2023-04-01T08:27:09;1.05;;;0.30;;
62580;SDS011;48640;48.770;9.148;2023-04-01T08:29:42;0.63;;;0.30;;
62580;SDS011;48640;48.770;9.148;2023-04-01T08:32:15;1.42;;;0.50;;
62580;SDS011;48640;48.770;9.148;2023-04-01T08:34:47;1.85;;;0.60;;
62580;SDS011;48640;48.770;9.148;2023-04-01T08:37:21;2.30;;;0.60;;
62580;SDS011;48640;48.770;9.148;2023-04-01T08:39:55;1.10;;;0.38;;
62580;SDS011;48640;48.770;9.148;2023-04-01T08:42:29;2.42;;;0.63;;
62580;SDS011;48640;48.770;9.148;2023-04-01T08:48:17;2.47;;;0.60;;
62580;SDS011;48640;48.770;9.148;2023-04-01T08:51:09;2.45;;;0.50;;
62580;SDS011;48640;48.770;9.148;2023-04-01T08:53:50;2.35;;;0.55;;
62580;SDS011;48640;48.770;9.148;2023-04-01T08:56:33;3.78;;;0.65;;
62580;SDS011;48640;48.770;9.148;2023-04-01T08:59:15;2.72;;;0.60;;
62580;SDS011;48640;48.770;9.148;2023-04-01T09:05:24;2.55;;;0.60;;
62580;SDS011;48640;48.770;9.148;2023-04-01T09:08:03;2.13;;;0.63;;
62580;SDS011;48640;48.770;9.148;2023-04-01T09:10:52;1.00;;;0.30;;
62580;SDS011;48640;48.770;9.148;2023-04-01T09:16:41;1.67;;;0.40;;
62580;SDS011;48640;48.770;9.148;2023-04-01T09:19:28;2.45;;;0.52;;
62580;SDS011;48640;48.770;9.148;2023-04-01T09:22:12;1.35;;;0.60;;
62580;SDS011;48640;48.770;9.148;2023-04-01T09:27:55;1.52;;;0.60;;
62580;SDS011;48640;48.770;9.148;2023-04-01T09:30:37;1.77;;;0.60;;
62580;SDS011;48640;48.770;9.148;2023-04-01T09:33:43;1.42;;;0.82;;
62580;SDS011;48640;48.770;9.148;2023-04-01T09:36:33;1.02;;;0.40;;
62580;SDS011;48640;48.770;9.148;2023-04-01T09:39:17;0.90;;;0.30;;
62580;SDS011;48640;48.770;9.148;2023-04-01T09:41:56;1.02;;;0.20;;
62580;SDS011;48640;48.770;9.148;2023-04-01T09:47:03;2.08;;;0.77;;
62580;SDS011;48640;48.770;9.148;2023-04-01T09:49:50;0.63;;;0.28;;
62580;SDS011;48640;48.770;9.148;2023-04-01T09:52:34;1.77;;;0.20;;
62580;SDS011;48640;48.770;9.148;2023-04-01T09:55:17;1.25;;;0.55;;
62580;SDS011;48640;48.770;9.148;2023-04-01T09:58:13;1.90;;;0.93;;
62580;SDS011;48640;48.770;9.148;2023-04-01T10:01:30;0.57;;;0.28;;
62580;SDS011;48640;48.770;9.148;2023-04-01T10:07:26;1.05;;;0.50;;
62580;SDS011;48640;48.770;9.148;2023-04-01T10:10:22;1.23;;;0.50;;
62580;SDS011;48640;48.770;9.148;2023-04-01T10:13:24;2.40;;;0.50;;
62580;SDS011;48640;48.770;9.148;2023-04-01T10:16:19;0.40;;;0.20;;
62580;SDS011;48640;48.770;9.148;2023-04-01T10:19:13;1.00;;;0.30;;
62580;SDS011;48640;48.770;9.148;2023-04-01T10:22:11;0.20;;;0.10;;
62580;SDS011;48640;48.770;9.148;2023-04-01T10:28:18;0.82;;;0.30;;
62580;SDS011;48640;48.770;9.148;2023-04-01T10:31:22;1.67;;;0.13;;
62580;SDS011;48640;48.770;9.148;2023-04-01T10:34:09;1.27;;;0.35;;
62580;SDS011;48640;48.770;9.148;2023-04-01T10:36:55;0.85;;;0.47;;
62580;SDS011;48640;48.770;9.148;2023-04-01T10:39:34;0.63;;;0.30;;
62580;SDS011;48640;48.770;9.148;2023-04-01T10:45:30;1.95;;;0.95;;
62580;SDS011;48640;48.770;9.148;2023-04-01T10:48:25;0.93;;;0.40;;
62580;SDS011;48640;48.770;9.148;2023-04-01T10:51:18;0.60;;;0.30;;
62580;SDS011;48640;48.770;9.148;2023-04-01T10:54:05;0.63;;;0.35;;
62580;SDS011;48640;48.770;9.148;2023-04-01T10:56:46;0.43;;;0.20;;
62580;SDS011;48640;48.770;9.148;2023-04-01T10:59:42;0.70;;;0.30;;
62580;SDS011;48640;48.770;9.148;2023-04-01T11:02:38;1.45;;;0.20;;
62580;SDS011;48640;48.770;9.148;2023-04-01T11:05:53;0.82;;;0.35;;
62580;SDS011;48640;48.770;9.148;2023-04-01T11:08:58;0.77;;;0.10;;
62580;SDS011;48640;48.770;9.148;2023-04-01T11:15:19;0.30;;;0.17;;
62580;SDS011;48640;48.770;9.148;2023-04-01T11:18:17;0.40;;;0.20;;
62580;SDS011;48640;48.770;9.148;2023-04-01T11:21:15;0.50;;;0.20;;
62580;SDS011;48640;48.770;9.148;2023-04-01T11:24:10;0.65;;;0.30;;
62580;SDS011;48640;48.770;9.148;2023-04-01T11:27:10;0.20;;;0.20;;
62580;SDS011;48640;48.770;9.148;2023-04-01T11:30:12;0.43;;;0.20;;
62580;SDS011;48640;48.770;9.148;2023-04-01T11:32:54;1.42;;;0.40;;
62580;SDS011;48640;48.770;9.148;2023-04-01T11:35:30;1.73;;;0.30;;
62580;SDS011;48640;48.770;9.148;2023-04-01T11:41:19;0.38;;;0.20;;
62580;SDS011;48640;48.770;9.148;2023-04-01T11:43:55;0.38;;;0.20;;
62580;SDS011;48640;48.770;9.148;2023-04-01T11:46:46;2.65;;;0.52;;
62580;SDS011;48640;48.770;9.148;2023-04-01T11:49:32;0.77;;;0.20;;
62580;SDS011;48640;48.770;9.148;2023-04-01T11:52:10;0.60;;;0.30;;
62580;SDS011;48640;48.770;9.148;2023-04-01T11:57:56;0.63;;;0.30;;
62580;SDS011;48640;48.770;9.148;2023-04-01T12:00:44;0.45;;;0.20;;
62580;SDS011;48640;48.770;9.148;2023-04-01T12:03:32;0.47;;;0.30;;
62580;SDS011;48640;48.770;9.148;2023-04-01T12:06:16;0.38;;;0.20;;
62580;SDS011;48640;48.770;9.148;2023-04-01T12:08:50;0.60;;;0.30;;
62580;SDS011;48640;48.770;9.148;2023-04-01T12:11:29;0.20;;;0.13;;
62580;SDS011;48640;48.770;9.148;2023-04-01T12:14:05;0.63;;;0.20;;
62580;SDS011;48640;48.770;9.148;2023-04-01T12:16:41;0.52;;;0.20;;
62580;SDS011;48640;48.770;9.148;2023-04-01T12:19:15;0.57;;;0.10;;
62580;SDS011;48640;48.770;9.148;2023-04-01T12:21:55;0.40;;;0.20;;
62580;SDS011;48640;48.770;9.148;2023-04-01T12:24:42;0.25;;;0.20;;
62580;SDS011;48640;48.770;9.148;2023-04-01T12:27:16;0.77;;;0.30;;
62580;SDS011;48640;48.770;9.148;2023-04-01T12:30:08;0.60;;;0.20;;
62580;SDS011;48640;48.770;9.148;2023-04-01T12:32:50;0.20;;;0.10;;
62580;SDS011;48640;48.770;9.148;2023-04-01T12:35:39;0.50;;;0.22;;
62580;SDS011;48640;48.770;9.148;2023-04-01T12:38:20;0.40;;;0.20;;
62580;SDS011;48640;48.770;9.148;2023-04-01T12:40:56;1.10;;;0.15;;
62580;SDS011;48640;48.770;9.148;2023-04-01T12:43:42;0.40;;;0.25;;
62580;SDS011;48640;48.770;9.148;2023-04-01T12:46:22;0.10;;;0.10;;
62580;SDS011;48640;48.770;9.148;2023-04-01T12:49:17;0.60;;;0.40;;
62580;SDS011;48640;48.770;9.148;2023-04-01T12:52:08;1.02;;;0.40;;
62580;SDS011;48640;48.770;9.148;2023-04-01T12:54:51;0.50;;;0.22;;
62580;SDS011;48640;48.770;9.148;2023-04-01T12:57:45;0.73;;;0.28;;
62580;SDS011;48640;48.770;9.148;2023-04-01T13:00:46;1.10;;;0.38;;
62580;SDS011;48640;48.770;9.148;2023-04-01T13:03:40;0.65;;;0.30;;
62580;SDS011;48640;48.770;9.148;2023-04-01T13:06:26;2.80;;;1.00;;
62580;SDS011;48640;48.770;9.148;2023-04-01T13:09:09;0.25;;;0.15;;
62580;SDS011;48640;48.770;9.148;2023-04-01T13:11:50;0.45;;;0.20;;
62580;SDS011;48640;48.770;9.148;2023-04-01T13:14:50;1.65;;;0.30;;
62580;SDS011;48640;48.770;9.148;2023-04-01T13:17:36;0.63;;;0.30;;
62580;SDS011;48640;48.770;9.148;2023-04-01T13:20:14;0.70;;;0.20;;
62580;SDS011;48640;48.770;9.148;2023-04-01T13:22:51;0.68;;;0.30;;
62580;SDS011;48640;48.770;9.148;2023-04-01T13:25:26;0.57;;;0.10;;
62580;SDS011;48640;48.770;9.148;2023-04-01T13:28:05;0.73;;;0.40;;
62580;SDS011;48640;48.770;9.148;2023-04-01T13:30:38;0.25;;;0.10;;
62580;SDS011;48640;48.770;9.148;2023-04-01T13:33:12;0.25;;;0.10;;
62580;SDS011;48640;48.770;9.148;2023-04-01T13:35:48;0.70;;;0.22;;
62580;SDS011;48640;48.770;9.148;2023-04-01T13:38:41;0.88;;;0.32;;
62580;SDS011;48640;48.770;9.148;2023-04-01T13:41:46;0.95;;;0.10;;
62580;SDS011;48640;48.770;9.148;2023-04-01T13:44:33;0.30;;;0.20;;
62580;SDS011;48640;48.770;9.148;2023-04-01T13:47:06;0.13;;;0.13;;
62580;SDS011;48640;48.770;9.148;2023-04-01T13:50:01;0.45;;;0.20;;
62580;SDS011;48640;48.770;9.148;2023-04-01T13:52:50;0.40;;;0.20;;
62580;SDS011;48640;48.770;9.148;2023-04-01T13:55:47;1.45;;;0.43;;
62580;SDS011;48640;48.770;9.148;2023-04-01T13:58:24;0.30;;;0.13;;
62580;SDS011;48640;48.770;9.148;2023-04-01T14:01:08;0.25;;;0.10;;
62580;SDS011;48640;48.770;9.148;2023-04-01T14:03:59;0.45;;;0.20;;
62580;SDS011;48640;48.770;9.148;2023-04-01T14:06:54;0.00;;;0.00;;
62580;SDS011;48640;48.770;9.148;2023-04-01T14:09:33;0.63;;;0.32;;
62580;SDS011;48640;48.770;9.148;2023-04-01T14:12:12;2.40;;;0.17;;
62580;SDS011;48640;48.770;9.148;2023-04-01T14:14:55;0.10;;;0.10;;
62580;SDS011;48640;48.770;9.148;2023-04-01T14:17:54;0.38;;;0.30;;
62580;SDS011;48640;48.770;9.148;2023-04-01T14:20:37;0.25;;;0.10;;
62580;SDS011;48640;48.770;9.148;2023-04-01T14:23:23;1.42;;;0.17;;
62580;SDS011;48640;48.770;9.148;2023-04-01T14:26:20;0.60;;;0.22;;
62580;SDS011;48640;48.770;9.148;2023-04-01T14:29:16;0.30;;;0.15;;
62580;SDS011;48640;48.770;9.148;2023-04-01T14:34:25;0.10;;;0.10;;
62580;SDS011;48640;48.770;9.148;2023-04-01T14:37:04;0.15;;;0.15;;
62580;SDS011;48640;48.770;9.148;2023-04-01T14:39:45;0.38;;;0.20;;
62580;SDS011;48640;48.770;9.148;2023-04-01T14:42:38;0.57;;;0.10;;
62580;SDS011;48640;48.770;9.148;2023-04-01T14:45:23;0.40;;;0.30;;
62580;SDS011;48640;48.770;9.148;2023-04-01T14:48:05;0.13;;;0.10;;
62580;SDS011;48640;48.770;9.148;2023-04-01T14:50:43;0.10;;;0.10;;
62580;SDS011;48640;48.770;9.148;2023-04-01T14:53:13;0.13;;;0.10;;
62580;SDS011;48640;48.770;9.148;2023-04-01T14:55:52;0.10;;;0.10;;
62580;SDS011;48640;48.770;9.148;2023-04-01T14:58:20;0.13;;;0.10;;
62580;SDS011;48640;48.770;9.148;2023-04-01T15:00:54;0.40;;;0.20;;
62580;SDS011;48640;48.770;9.148;2023-04-01T15:03:26;0.38;;;0.28;;
62580;SDS011;48640;48.770;9.148;2023-04-01T15:06:08;0.15;;;0.10;;
62580;SDS011;48640;48.770;9.148;2023-04-01T15:08:53;0.60;;;0.08;;
62580;SDS011;48640;48.770;9.148;2023-04-01T15:11:29;0.57;;;0.40;;
62580;SDS011;48640;48.770;9.148;2023-04-01T15:17:19;0.25;;;0.13;;
62580;SDS011;48640;48.770;9.148;2023-04-01T15:20:00;0.38;;;0.22;;
62580;SDS011;48640;48.770;9.148;2023-04-01T15:22:54;0.20;;;0.20;;
62580;SDS011;48640;48.770;9.148;2023-04-01T15:25:41;0.65;;;0.20;;
62580;SDS011;48640;48.770;9.148;2023-04-01T15:28:16;1.02;;;0.20;;
62580;SDS011;48640;48.770;9.148;2023-04-01T15:30:53;0.20;;;0.20;;
62580;SDS011;48640;48.770;9.148;2023-04-01T15:33:27;0.82;;;0.30;;
62580;SDS011;48640;48.770;9.148;2023-04-01T15:36:04;0.45;;;0.20;;
62580;SDS011;48640;48.770;9.148;2023-04-01T15:38:38;1.02;;;0.35;;
62580;SDS011;48640;48.770;9.148;2023-04-01T15:41:14;0.45;;;0.20;;
62580;SDS011;48640;48.770;9.148;2023-04-01T15:43:43;1.58;;;0.45;;
62580;SDS011;48640;48.770;9.148;2023-04-01T15:46:16;2.35;;;0.20;;
62580;SDS011;48640;48.770;9.148;2023-04-01T15:49:11;0.45;;;0.20;;
62580;SDS011;48640;48.770;9.148;2023-04-01T15:51:48;0.15;;;0.10;;
62580;SDS011;48640;48.770;9.148;2023-04-01T15:57:24;0.38;;;0.20;;
62580;SDS011;48640;48.770;9.148;2023-04-01T16:00:08;0.57;;;0.25;;
62580;SDS011;48640;48.770;9.148;2023-04-01T16:02:42;0.40;;;0.20;;
62580;SDS011;48640;48.770;9.148;2023-04-01T16:05:21;1.77;;;0.70;;
62580;SDS011;48640;48.770;9.148;2023-04-01T16:07:57;0.80;;;0.57;;
62580;SDS011;48640;48.770;9.148;2023-04-01T16:10:46;0.60;;;0.20;;
62580;SDS011;48640;48.770;9.148;2023-04-01T16:13:28;0.60;;;0.35;;
62580;SDS011;48640;48.770;9.148;2023-04-01T16:16:10;0.60;;;0.40;;
62580;SDS011;48640;48.770;9.148;2023-04-01T16:18:51;0.77;;;0.30;;
62580;SDS011;48640;48.770;9.148;2023-04-01T16:21:40;0.35;;;0.20;;
62580;SDS011;48640;48.770;9.148;2023-04-01T16:24:13;0.95;;;0.38;;
62580;SDS011;48640;48.770;9.148;2023-04-01T16:26:50;1.75;;;0.60;;
62580;SDS011;48640;48.770;9.148;2023-04-01T16:29:22;1.17;;;0.40;;
62580;SDS011;48640;48.770;9.148;2023-04-01T16:31:55;0.65;;;0.30;;
62580;SDS011;48640;48.770;9.148;2023-04-01T16:34:33;1.65;;;0.50;;
62580;SDS011;48640;48.770;9.148;2023-04-01T16:37:05;1.80;;;0.82;;